This is the latest recevied weather packets stored in our database for station/object DM4SB-13. If no packets are shown the sender has not sent any weather packets the latest 10 day(s).
| Time | Temp. | Humidity | Pressure | Rain* | Wind** | Luminosity | Snow |
|---|---|---|---|---|---|---|---|
| 1777963218 | 15° C | 68% | 1010 hPa | - | - | - | - |
| 1777962618 | 14.44° C | 68% | 1010.3 hPa | - | - | - | - |
| 1777962017 | 14.44° C | 68% | 1010.3 hPa | - | - | - | - |
| 1777961418 | 14.44° C | 68% | 1010.6 hPa | - | - | - | - |
| 1777960817 | 13.89° C | 68% | 1010.6 hPa | - | - | - | - |
| 1777960217 | 13.89° C | 68% | 1010.6 hPa | - | - | - | - |
| 1777959617 | 13.89° C | 68% | 1010.9 hPa | - | - | - | - |
| 1777959018 | 13.89° C | 68% | 1010.8 hPa | - | - | - | - |
| 1777958417 | 13.89° C | 68% | 1010.6 hPa | - | - | - | - |
| 1777957818 | 13.89° C | 68% | 1010.8 hPa | - | - | - | - |
| 1777956618 | 13.89° C | 67% | 1010.9 hPa | - | - | - | - |
| 1777956017 | 13.89° C | 67% | 1010.9 hPa | - | - | - | - |
| 1777955417 | 13.89° C | 67% | 1010.9 hPa | - | - | - | - |
| 1777954817 | 13.89° C | 67% | 1010.9 hPa | - | - | - | - |
| 1777954217 | 13.89° C | 67% | 1010.8 hPa | - | - | - | - |
| 1777943418 | 15.56° C | 64% | 1012.2 hPa | - | - | - | - |
| 1777942818 | 16.11° C | 64% | 1012.2 hPa | - | - | - | - |
| 1777941018 | 16.11° C | 63% | 1012.1 hPa | - | - | - | - |
| 1777940417 | 16.11° C | 63% | 1012.2 hPa | - | - | - | - |
| 1777939818 | 16.67° C | 63% | 1012.2 hPa | - | - | - | - |
| 1777939218 | 16.67° C | 62% | 1012 hPa | - | - | - | - |
| 1777938618 | 16.67° C | 62% | 1011.9 hPa | - | - | - | - |
| 1777937418 | 17.22° C | 61% | 1012 hPa | - | - | - | - |
| 1777933818 | 17.78° C | 57% | 1012.2 hPa | - | - | - | - |
| 1777930218 | 18.33° C | 56% | 1013.1 hPa | - | - | - | - |
* Rain since midnight (hover to see other rain measurements)
** Current wind speed in m/s (hover to see current wind gust speed)